LPMA/FNC METAR and TAF weather

Enter ICAO airport designator
Station Type Date Time Source
LPMA METAR 2021/07/26 12:00 UTC NOAA

LPMA 261200Z VRB04KT 7000 SCT013 BKN030 27/18 Q1020


Station Type Date Time Source
LPMA Decoded METAR 2021/07/26 12:00 UTC NOAA

Aeroporto Da Madeira, Portugal (LPMA) 32-41-52N 016-46-28W
Jul 26, 2021 - 08:00 AM EDT / 2021.07.26 1200 UTC
Wind: Variable at 5 MPH (4 KT):0
Visibility: 4 mile(s):0
Sky conditions: mostly cloudy
Temperature: 80 F (27 C)
Dew Point: 64 F (18 C)
Relative Humidity: 57%
Pressure (altimeter): 30.12 in. Hg (1020 hPa)
ob: LPMA 261200Z VRB04KT 7000 SCT013 BKN030 27/18 Q1020
cycle: 12

Station Type Date Time Source
LPMA TAF 2021/07/26 12:18 UTC NOAA

TAF LPMA 261100Z 2612/2712 02010KT 9999 SCT015
TEMPO 2612/2620 VRB05KT PROB40
TEMPO 2612/2712 6000 -RA BKN013
BECMG 2708/2710 02015KT

Example: see airport list